sensor_id;sensor_type;location;lat;lon;timestamp;P1;durP1;ratioP1;P2;durP2;ratioP2
83895;SDS011;74045;42.812;74.638;2023-12-29T00:01:32;2.47;;;0.68;;
83895;SDS011;74045;42.812;74.638;2023-12-29T00:03:58;1.92;;;0.77;;
83895;SDS011;74045;42.812;74.638;2023-12-29T00:06:24;2.10;;;0.95;;
83895;SDS011;74045;42.812;74.638;2023-12-29T00:08:50;10.82;;;2.60;;
83895;SDS011;74045;42.812;74.638;2023-12-29T00:11:17;18.38;;;5.85;;
83895;SDS011;74045;42.812;74.638;2023-12-29T00:13:46;17.55;;;6.43;;
83895;SDS011;74045;42.812;74.638;2023-12-29T00:16:12;22.15;;;7.45;;
83895;SDS011;74045;42.812;74.638;2023-12-29T00:18:38;27.30;;;9.60;;
83895;SDS011;74045;42.812;74.638;2023-12-29T00:21:04;25.08;;;10.75;;
83895;SDS011;74045;42.812;74.638;2023-12-29T00:23:30;27.95;;;13.15;;
83895;SDS011;74045;42.812;74.638;2023-12-29T00:25:56;28.95;;;11.85;;
83895;SDS011;74045;42.812;74.638;2023-12-29T00:28:22;21.02;;;11.05;;
83895;SDS011;74045;42.812;74.638;2023-12-29T00:30:48;27.55;;;12.15;;
83895;SDS011;74045;42.812;74.638;2023-12-29T00:33:13;24.45;;;11.95;;
83895;SDS011;74045;42.812;74.638;2023-12-29T00:35:39;22.38;;;10.77;;
83895;SDS011;74045;42.812;74.638;2023-12-29T00:38:05;29.95;;;12.15;;
83895;SDS011;74045;42.812;74.638;2023-12-29T00:40:31;41.67;;;15.70;;
83895;SDS011;74045;42.812;74.638;2023-12-29T00:42:58;34.45;;;12.90;;
83895;SDS011;74045;42.812;74.638;2023-12-29T00:45:25;40.58;;;14.82;;
83895;SDS011;74045;42.812;74.638;2023-12-29T00:47:50;41.83;;;14.43;;
83895;SDS011;74045;42.812;74.638;2023-12-29T00:50:16;41.22;;;14.48;;
83895;SDS011;74045;42.812;74.638;2023-12-29T00:52:42;23.75;;;9.45;;
83895;SDS011;74045;42.812;74.638;2023-12-29T00:55:08;30.92;;;12.57;;
83895;SDS011;74045;42.812;74.638;2023-12-29T00:57:34;34.15;;;13.45;;
83895;SDS011;74045;42.812;74.638;2023-12-29T01:00:00;22.60;;;8.85;;
83895;SDS011;74045;42.812;74.638;2023-12-29T01:02:26;19.02;;;6.72;;
83895;SDS011;74045;42.812;74.638;2023-12-29T01:04:52;19.77;;;8.40;;
83895;SDS011;74045;42.812;74.638;2023-12-29T01:07:17;9.40;;;3.83;;
83895;SDS011;74045;42.812;74.638;2023-12-29T01:09:43;10.68;;;4.85;;
83895;SDS011;74045;42.812;74.638;2023-12-29T01:12:09;14.23;;;4.93;;
83895;SDS011;74045;42.812;74.638;2023-12-29T01:14:35;4.95;;;1.92;;
83895;SDS011;74045;42.812;74.638;2023-12-29T01:17:00;12.02;;;3.65;;
83895;SDS011;74045;42.812;74.638;2023-12-29T01:19:26;18.58;;;5.72;;
83895;SDS011;74045;42.812;74.638;2023-12-29T01:21:52;19.25;;;7.57;;
83895;SDS011;74045;42.812;74.638;2023-12-29T01:24:18;35.08;;;11.40;;
83895;SDS011;74045;42.812;74.638;2023-12-29T01:26:43;22.52;;;8.02;;
83895;SDS011;74045;42.812;74.638;2023-12-29T01:29:09;26.77;;;7.38;;
83895;SDS011;74045;42.812;74.638;2023-12-29T01:31:35;19.88;;;7.22;;
83895;SDS011;74045;42.812;74.638;2023-12-29T01:34:00;24.60;;;8.07;;
83895;SDS011;74045;42.812;74.638;2023-12-29T01:36:26;18.83;;;6.47;;
83895;SDS011;74045;42.812;74.638;2023-12-29T01:38:52;12.32;;;4.13;;
83895;SDS011;74045;42.812;74.638;2023-12-29T01:41:20;13.00;;;4.45;;
83895;SDS011;74045;42.812;74.638;2023-12-29T01:46:25;11.98;;;3.22;;
83895;SDS011;74045;42.812;74.638;2023-12-29T01:48:52;14.85;;;3.95;;
83895;SDS011;74045;42.812;74.638;2023-12-29T01:51:18;19.48;;;4.20;;
83895;SDS011;74045;42.812;74.638;2023-12-29T01:53:48;21.52;;;4.25;;
83895;SDS011;74045;42.812;74.638;2023-12-29T01:56:15;14.48;;;3.80;;
83895;SDS011;74045;42.812;74.638;2023-12-29T01:58:42;7.30;;;3.25;;
83895;SDS011;74045;42.812;74.638;2023-12-29T02:01:09;29.38;;;5.45;;
83895;SDS011;74045;42.812;74.638;2023-12-29T02:03:35;14.35;;;4.65;;
83895;SDS011;74045;42.812;74.638;2023-12-29T02:06:02;16.23;;;5.43;;
83895;SDS011;74045;42.812;74.638;2023-12-29T02:08:28;27.25;;;5.57;;
83895;SDS011;74045;42.812;74.638;2023-12-29T02:10:55;20.55;;;5.40;;
83895;SDS011;74045;42.812;74.638;2023-12-29T02:13:21;19.13;;;5.20;;
83895;SDS011;74045;42.812;74.638;2023-12-29T02:15:48;24.70;;;6.07;;
83895;SDS011;74045;42.812;74.638;2023-12-29T02:18:20;30.85;;;5.63;;
83895;SDS011;74045;42.812;74.638;2023-12-29T02:20:47;14.52;;;4.50;;
83895;SDS011;74045;42.812;74.638;2023-12-29T02:23:13;5.40;;;2.65;;
83895;SDS011;74045;42.812;74.638;2023-12-29T02:25:39;12.57;;;2.72;;
83895;SDS011;74045;42.812;74.638;2023-12-29T02:33:34;7.63;;;2.60;;
83895;SDS011;74045;42.812;74.638;2023-12-29T02:36:05;8.32;;;2.78;;
83895;SDS011;74045;42.812;74.638;2023-12-29T02:38:32;8.60;;;2.95;;
83895;SDS011;74045;42.812;74.638;2023-12-29T02:40:59;9.77;;;2.83;;
83895;SDS011;74045;42.812;74.638;2023-12-29T02:43:25;9.15;;;3.10;;
83895;SDS011;74045;42.812;74.638;2023-12-29T02:45:50;7.78;;;2.65;;
83895;SDS011;74045;42.812;74.638;2023-12-29T02:48:16;11.40;;;3.10;;
83895;SDS011;74045;42.812;74.638;2023-12-29T02:50:42;12.93;;;4.22;;
83895;SDS011;74045;42.812;74.638;2023-12-29T02:53:08;10.30;;;3.95;;
83895;SDS011;74045;42.812;74.638;2023-12-29T02:55:33;17.05;;;5.72;;
83895;SDS011;74045;42.812;74.638;2023-12-29T02:57:59;14.90;;;4.95;;
83895;SDS011;74045;42.812;74.638;2023-12-29T03:00:25;13.43;;;5.20;;
83895;SDS011;74045;42.812;74.638;2023-12-29T03:02:51;18.77;;;5.32;;
83895;SDS011;74045;42.812;74.638;2023-12-29T03:05:16;18.80;;;4.38;;
83895;SDS011;74045;42.812;74.638;2023-12-29T03:07:42;17.58;;;4.60;;
83895;SDS011;74045;42.812;74.638;2023-12-29T03:10:08;15.50;;;3.45;;
83895;SDS011;74045;42.812;74.638;2023-12-29T03:12:34;9.30;;;2.80;;
83895;SDS011;74045;42.812;74.638;2023-12-29T03:14:59;18.83;;;3.75;;
83895;SDS011;74045;42.812;74.638;2023-12-29T03:17:25;21.42;;;3.50;;
83895;SDS011;74045;42.812;74.638;2023-12-29T03:19:52;29.98;;;4.35;;
83895;SDS011;74045;42.812;74.638;2023-12-29T03:22:18;33.88;;;5.60;;
83895;SDS011;74045;42.812;74.638;2023-12-29T03:24:44;40.58;;;5.80;;
83895;SDS011;74045;42.812;74.638;2023-12-29T03:27:09;46.55;;;4.95;;
83895;SDS011;74045;42.812;74.638;2023-12-29T03:29:36;40.08;;;6.13;;
83895;SDS011;74045;42.812;74.638;2023-12-29T03:32:02;55.70;;;6.22;;
83895;SDS011;74045;42.812;74.638;2023-12-29T03:34:28;44.78;;;7.18;;
83895;SDS011;74045;42.812;74.638;2023-12-29T03:36:53;58.92;;;7.93;;
83895;SDS011;74045;42.812;74.638;2023-12-29T03:39:19;41.85;;;7.38;;
83895;SDS011;74045;42.812;74.638;2023-12-29T03:41:45;44.03;;;12.60;;
83895;SDS011;74045;42.812;74.638;2023-12-29T03:44:11;91.78;;;29.75;;
83895;SDS011;74045;42.812;74.638;2023-12-29T03:46:37;72.05;;;28.90;;
83895;SDS011;74045;42.812;74.638;2023-12-29T03:49:02;55.33;;;23.15;;
83895;SDS011;74045;42.812;74.638;2023-12-29T03:51:28;64.82;;;21.90;;
83895;SDS011;74045;42.812;74.638;2023-12-29T03:53:54;48.40;;;19.40;;
83895;SDS011;74045;42.812;74.638;2023-12-29T03:56:20;46.33;;;19.63;;
83895;SDS011;74045;42.812;74.638;2023-12-29T03:58:46;47.75;;;18.98;;
83895;SDS011;74045;42.812;74.638;2023-12-29T04:01:16;57.85;;;20.83;;
83895;SDS011;74045;42.812;74.638;2023-12-29T04:03:42;50.35;;;21.05;;
83895;SDS011;74045;42.812;74.638;2023-12-29T04:06:09;55.20;;;20.90;;
83895;SDS011;74045;42.812;74.638;2023-12-29T04:08:35;61.58;;;22.63;;
83895;SDS011;74045;42.812;74.638;2023-12-29T04:11:02;69.38;;;22.33;;
83895;SDS011;74045;42.812;74.638;2023-12-29T04:13:28;57.53;;;22.13;;
83895;SDS011;74045;42.812;74.638;2023-12-29T04:15:54;66.60;;;22.17;;
83895;SDS011;74045;42.812;74.638;2023-12-29T04:18:21;54.95;;;20.98;;
83895;SDS011;74045;42.812;74.638;2023-12-29T04:20:47;57.63;;;21.20;;
83895;SDS011;74045;42.812;74.638;2023-12-29T04:23:13;50.97;;;19.58;;
83895;SDS011;74045;42.812;74.638;2023-12-29T04:25:39;59.47;;;19.98;;
83895;SDS011;74045;42.812;74.638;2023-12-29T04:28:06;60.40;;;18.70;;
83895;SDS011;74045;42.812;74.638;2023-12-29T04:30:32;44.35;;;16.15;;
83895;SDS011;74045;42.812;74.638;2023-12-29T04:32:58;47.05;;;14.50;;
83895;SDS011;74045;42.812;74.638;2023-12-29T04:35:24;49.88;;;12.48;;
83895;SDS011;74045;42.812;74.638;2023-12-29T04:37:50;59.63;;;13.40;;
83895;SDS011;74045;42.812;74.638;2023-12-29T04:40:16;55.55;;;12.95;;
83895;SDS011;74045;42.812;74.638;2023-12-29T04:42:42;67.00;;;13.32;;
83895;SDS011;74045;42.812;74.638;2023-12-29T04:45:08;76.80;;;11.82;;
83895;SDS011;74045;42.812;74.638;2023-12-29T04:47:35;95.03;;;15.15;;
83895;SDS011;74045;42.812;74.638;2023-12-29T04:50:01;86.53;;;13.18;;
83895;SDS011;74045;42.812;74.638;2023-12-29T04:52:27;121.00;;;16.95;;
83895;SDS011;74045;42.812;74.638;2023-12-29T04:54:53;136.52;;;17.95;;
83895;SDS011;74045;42.812;74.638;2023-12-29T04:57:18;130.80;;;18.63;;
83895;SDS011;74045;42.812;74.638;2023-12-29T04:59:44;99.63;;;15.82;;
83895;SDS011;74045;42.812;74.638;2023-12-29T05:02:10;130.95;;;20.70;;
83895;SDS011;74045;42.812;74.638;2023-12-29T05:04:35;137.73;;;21.70;;
83895;SDS011;74045;42.812;74.638;2023-12-29T05:07:08;137.48;;;19.05;;
83895;SDS011;74045;42.812;74.638;2023-12-29T05:09:34;145.05;;;15.75;;
83895;SDS011;74045;42.812;74.638;2023-12-29T05:12:00;135.52;;;16.95;;
83895;SDS011;74045;42.812;74.638;2023-12-29T05:14:26;134.70;;;19.92;;
83895;SDS011;74045;42.812;74.638;2023-12-29T05:16:52;123.68;;;16.08;;
83895;SDS011;74045;42.812;74.638;2023-12-29T05:19:17;153.55;;;22.23;;
83895;SDS011;74045;42.812;74.638;2023-12-29T05:21:43;133.07;;;19.55;;
83895;SDS011;74045;42.812;74.638;2023-12-29T05:24:09;116.75;;;16.73;;
83895;SDS011;74045;42.812;74.638;2023-12-29T05:26:35;117.15;;;16.45;;
83895;SDS011;74045;42.812;74.638;2023-12-29T05:29:01;156.93;;;18.95;;
83895;SDS011;74045;42.812;74.638;2023-12-29T05:31:27;146.27;;;20.17;;
83895;SDS011;74045;42.812;74.638;2023-12-29T05:33:53;148.60;;;19.63;;
83895;SDS011;74045;42.812;74.638;2023-12-29T05:36:20;118.45;;;15.50;;
83895;SDS011;74045;42.812;74.638;2023-12-29T05:38:46;140.50;;;17.17;;
83895;SDS011;74045;42.812;74.638;2023-12-29T05:41:14;167.20;;;20.90;;
83895;SDS011;74045;42.812;74.638;2023-12-29T05:43:40;126.07;;;15.70;;
83895;SDS011;74045;42.812;74.638;2023-12-29T05:46:09;127.15;;;16.27;;
83895;SDS011;74045;42.812;74.638;2023-12-29T05:48:38;149.02;;;18.88;;
83895;SDS011;74045;42.812;74.638;2023-12-29T05:51:11;171.50;;;19.35;;
83895;SDS011;74045;42.812;74.638;2023-12-29T05:53:41;133.57;;;18.60;;
83895;SDS011;74045;42.812;74.638;2023-12-29T05:56:07;126.25;;;17.52;;
83895;SDS011;74045;42.812;74.638;2023-12-29T05:58:32;126.55;;;17.95;;
83895;SDS011;74045;42.812;74.638;2023-12-29T06:00:58;137.43;;;19.23;;
83895;SDS011;74045;42.812;74.638;2023-12-29T06:03:25;123.20;;;19.75;;
83895;SDS011;74045;42.812;74.638;2023-12-29T06:05:51;110.75;;;13.82;;
83895;SDS011;74045;42.812;74.638;2023-12-29T06:08:17;116.32;;;17.38;;
83895;SDS011;74045;42.812;74.638;2023-12-29T06:10:43;138.38;;;18.48;;
83895;SDS011;74045;42.812;74.638;2023-12-29T06:13:08;108.80;;;15.02;;
83895;SDS011;74045;42.812;74.638;2023-12-29T06:15:34;115.95;;;13.82;;
83895;SDS011;74045;42.812;74.638;2023-12-29T06:18:01;106.78;;;14.68;;
83895;SDS011;74045;42.812;74.638;2023-12-29T06:20:27;91.60;;;15.07;;
83895;SDS011;74045;42.812;74.638;2023-12-29T06:22:53;90.43;;;12.45;;
83895;SDS011;74045;42.812;74.638;2023-12-29T06:25:19;109.40;;;13.75;;
83895;SDS011;74045;42.812;74.638;2023-12-29T06:27:45;81.20;;;11.50;;
83895;SDS011;74045;42.812;74.638;2023-12-29T06:30:11;80.80;;;12.23;;
83895;SDS011;74045;42.812;74.638;2023-12-29T06:32:37;82.95;;;10.82;;
83895;SDS011;74045;42.812;74.638;2023-12-29T06:35:03;63.40;;;9.40;;
83895;SDS011;74045;42.812;74.638;2023-12-29T06:37:30;79.72;;;10.40;;
83895;SDS011;74045;42.812;74.638;2023-12-29T06:39:56;61.28;;;10.45;;
83895;SDS011;74045;42.812;74.638;2023-12-29T06:42:22;95.70;;;11.30;;
83895;SDS011;74045;42.812;74.638;2023-12-29T06:44:48;94.55;;;12.30;;
83895;SDS011;74045;42.812;74.638;2023-12-29T06:47:14;84.70;;;12.68;;
83895;SDS011;74045;42.812;74.638;2023-12-29T06:49:39;88.30;;;13.43;;
83895;SDS011;74045;42.812;74.638;2023-12-29T06:52:06;106.75;;;12.20;;
83895;SDS011;74045;42.812;74.638;2023-12-29T06:54:33;67.90;;;12.00;;
83895;SDS011;74045;42.812;74.638;2023-12-29T06:56:59;85.82;;;11.48;;
83895;SDS011;74045;42.812;74.638;2023-12-29T06:59:24;64.25;;;9.98;;
83895;SDS011;74045;42.812;74.638;2023-12-29T07:01:50;55.88;;;9.10;;
83895;SDS011;74045;42.812;74.638;2023-12-29T07:04:16;66.47;;;9.88;;
83895;SDS011;74045;42.812;74.638;2023-12-29T07:06:42;60.08;;;10.88;;
83895;SDS011;74045;42.812;74.638;2023-12-29T07:09:08;73.97;;;9.85;;
83895;SDS011;74045;42.812;74.638;2023-12-29T07:11:35;56.83;;;10.40;;
83895;SDS011;74045;42.812;74.638;2023-12-29T07:14:01;52.28;;;10.32;;
83895;SDS011;74045;42.812;74.638;2023-12-29T07:16:27;68.40;;;9.35;;
83895;SDS011;74045;42.812;74.638;2023-12-29T07:18:52;56.22;;;11.77;;
83895;SDS011;74045;42.812;74.638;2023-12-29T07:21:18;75.65;;;12.82;;
83895;SDS011;74045;42.812;74.638;2023-12-29T07:23:44;58.13;;;10.38;;
83895;SDS011;74045;42.812;74.638;2023-12-29T07:26:10;60.72;;;9.38;;
83895;SDS011;74045;42.812;74.638;2023-12-29T07:28:36;51.45;;;9.60;;
83895;SDS011;74045;42.812;74.638;2023-12-29T07:31:01;58.95;;;10.15;;
83895;SDS011;74045;42.812;74.638;2023-12-29T07:33:27;39.35;;;7.97;;
83895;SDS011;74045;42.812;74.638;2023-12-29T07:35:53;49.17;;;9.00;;
83895;SDS011;74045;42.812;74.638;2023-12-29T07:38:19;52.45;;;7.82;;
83895;SDS011;74045;42.812;74.638;2023-12-29T07:40:45;42.72;;;8.90;;
83895;SDS011;74045;42.812;74.638;2023-12-29T07:43:13;46.00;;;7.90;;
83895;SDS011;74045;42.812;74.638;2023-12-29T07:45:39;39.13;;;9.68;;
83895;SDS011;74045;42.812;74.638;2023-12-29T07:48:05;44.30;;;8.02;;
83895;SDS011;74045;42.812;74.638;2023-12-29T07:50:31;38.25;;;9.10;;
83895;SDS011;74045;42.812;74.638;2023-12-29T07:52:57;30.80;;;9.00;;
83895;SDS011;74045;42.812;74.638;2023-12-29T07:55:25;41.83;;;10.25;;
83895;SDS011;74045;42.812;74.638;2023-12-29T07:57:51;44.42;;;9.85;;
83895;SDS011;74045;42.812;74.638;2023-12-29T08:00:17;40.97;;;9.93;;
83895;SDS011;74045;42.812;74.638;2023-12-29T08:02:47;30.27;;;6.88;;
83895;SDS011;74045;42.812;74.638;2023-12-29T08:05:12;27.85;;;8.02;;
83895;SDS011;74045;42.812;74.638;2023-12-29T08:07:40;32.40;;;6.90;;
83895;SDS011;74045;42.812;74.638;2023-12-29T08:10:06;24.60;;;7.03;;
83895;SDS011;74045;42.812;74.638;2023-12-29T08:12:32;22.40;;;6.80;;
83895;SDS011;74045;42.812;74.638;2023-12-29T08:14:59;18.52;;;5.70;;
83895;SDS011;74045;42.812;74.638;2023-12-29T08:17:25;17.75;;;6.45;;
83895;SDS011;74045;42.812;74.638;2023-12-29T08:19:51;15.40;;;6.93;;
83895;SDS011;74045;42.812;74.638;2023-12-29T08:22:17;20.30;;;9.13;;
83895;SDS011;74045;42.812;74.638;2023-12-29T08:24:44;21.55;;;9.05;;
83895;SDS011;74045;42.812;74.638;2023-12-29T08:27:11;23.85;;;11.43;;
83895;SDS011;74045;42.812;74.638;2023-12-29T08:29:37;21.73;;;10.90;;
83895;SDS011;74045;42.812;74.638;2023-12-29T08:32:03;20.38;;;8.23;;
83895;SDS011;74045;42.812;74.638;2023-12-29T08:34:29;22.17;;;11.20;;
83895;SDS011;74045;42.812;74.638;2023-12-29T08:36:55;13.90;;;7.40;;
83895;SDS011;74045;42.812;74.638;2023-12-29T08:39:21;11.43;;;7.93;;
83895;SDS011;74045;42.812;74.638;2023-12-29T08:41:47;15.18;;;7.13;;
83895;SDS011;74045;42.812;74.638;2023-12-29T08:44:14;11.73;;;7.93;;
83895;SDS011;74045;42.812;74.638;2023-12-29T08:46:40;11.82;;;7.60;;
83895;SDS011;74045;42.812;74.638;2023-12-29T08:49:06;15.85;;;7.57;;
83895;SDS011;74045;42.812;74.638;2023-12-29T08:51:32;16.00;;;9.65;;
83895;SDS011;74045;42.812;74.638;2023-12-29T08:53:59;20.40;;;10.93;;
83895;SDS011;74045;42.812;74.638;2023-12-29T08:56:25;17.88;;;11.23;;
83895;SDS011;74045;42.812;74.638;2023-12-29T08:58:51;22.00;;;10.82;;
83895;SDS011;74045;42.812;74.638;2023-12-29T09:01:17;17.95;;;11.38;;
83895;SDS011;74045;42.812;74.638;2023-12-29T09:03:44;19.25;;;9.95;;
83895;SDS011;74045;42.812;74.638;2023-12-29T09:06:10;19.17;;;10.75;;
83895;SDS011;74045;42.812;74.638;2023-12-29T09:08:35;18.55;;;10.45;;
83895;SDS011;74045;42.812;74.638;2023-12-29T09:11:01;20.08;;;10.45;;
83895;SDS011;74045;42.812;74.638;2023-12-29T09:13:28;22.58;;;11.93;;
83895;SDS011;74045;42.812;74.638;2023-12-29T09:15:58;22.95;;;12.07;;
83895;SDS011;74045;42.812;74.638;2023-12-29T09:18:24;21.00;;;10.07;;
83895;SDS011;74045;42.812;74.638;2023-12-29T09:20:51;19.75;;;10.18;;
83895;SDS011;74045;42.812;74.638;2023-12-29T09:23:16;17.75;;;9.10;;
83895;SDS011;74045;42.812;74.638;2023-12-29T09:25:42;16.80;;;9.57;;
83895;SDS011;74045;42.812;74.638;2023-12-29T09:28:08;20.33;;;9.35;;
83895;SDS011;74045;42.812;74.638;2023-12-29T09:30:34;24.30;;;11.35;;
83895;SDS011;74045;42.812;74.638;2023-12-29T09:33:00;25.05;;;10.85;;
83895;SDS011;74045;42.812;74.638;2023-12-29T09:35:26;22.83;;;10.75;;
83895;SDS011;74045;42.812;74.638;2023-12-29T09:37:51;23.77;;;10.98;;
83895;SDS011;74045;42.812;74.638;2023-12-29T09:40:17;29.05;;;14.75;;
83895;SDS011;74045;42.812;74.638;2023-12-29T09:42:43;29.50;;;14.40;;
83895;SDS011;74045;42.812;74.638;2023-12-29T09:45:10;24.38;;;12.52;;
83895;SDS011;74045;42.812;74.638;2023-12-29T09:47:38;24.75;;;11.18;;
83895;SDS011;74045;42.812;74.638;2023-12-29T09:50:05;28.02;;;12.35;;
83895;SDS011;74045;42.812;74.638;2023-12-29T09:52:35;28.85;;;11.77;;
83895;SDS011;74045;42.812;74.638;2023-12-29T09:55:02;28.42;;;13.85;;
83895;SDS011;74045;42.812;74.638;2023-12-29T09:57:29;27.33;;;11.70;;
83895;SDS011;74045;42.812;74.638;2023-12-29T09:59:55;25.23;;;11.23;;
83895;SDS011;74045;42.812;74.638;2023-12-29T10:02:22;24.95;;;11.65;;
83895;SDS011;74045;42.812;74.638;2023-12-29T10:04:48;23.73;;;11.35;;
83895;SDS011;74045;42.812;74.638;2023-12-29T10:07:22;23.42;;;10.75;;
83895;SDS011;74045;42.812;74.638;2023-12-29T10:09:50;22.23;;;9.73;;
83895;SDS011;74045;42.812;74.638;2023-12-29T10:12:19;26.02;;;12.50;;
83895;SDS011;74045;42.812;74.638;2023-12-29T10:18:14;26.48;;;12.13;;
83895;SDS011;74045;42.812;74.638;2023-12-29T10:24:05;29.38;;;12.90;;
83895;SDS011;74045;42.812;74.638;2023-12-29T10:26:33;27.90;;;13.75;;
83895;SDS011;74045;42.812;74.638;2023-12-29T10:29:01;30.05;;;14.80;;
83895;SDS011;74045;42.812;74.638;2023-12-29T10:31:27;33.60;;;14.45;;
83895;SDS011;74045;42.812;74.638;2023-12-29T10:34:04;39.60;;;16.95;;
83895;SDS011;74045;42.812;74.638;2023-12-29T10:36:51;33.97;;;15.05;;
83895;SDS011;74045;42.812;74.638;2023-12-29T10:39:16;32.55;;;13.77;;
83895;SDS011;74045;42.812;74.638;2023-12-29T10:41:42;29.38;;;13.32;;
83895;SDS011;74045;42.812;74.638;2023-12-29T10:44:08;31.35;;;13.18;;
83895;SDS011;74045;42.812;74.638;2023-12-29T10:46:34;27.35;;;12.23;;
83895;SDS011;74045;42.812;74.638;2023-12-29T10:49:08;22.88;;;10.43;;
83895;SDS011;74045;42.812;74.638;2023-12-29T10:51:35;19.88;;;8.88;;
83895;SDS011;74045;42.812;74.638;2023-12-29T10:54:02;23.85;;;11.15;;
83895;SDS011;74045;42.812;74.638;2023-12-29T10:56:28;23.20;;;9.93;;
83895;SDS011;74045;42.812;74.638;2023-12-29T10:59:01;25.17;;;10.82;;
83895;SDS011;74045;42.812;74.638;2023-12-29T11:01:29;23.42;;;10.30;;
83895;SDS011;74045;42.812;74.638;2023-12-29T11:04:00;22.80;;;10.40;;
83895;SDS011;74045;42.812;74.638;2023-12-29T11:06:27;21.83;;;10.73;;
83895;SDS011;74045;42.812;74.638;2023-12-29T11:08:54;19.90;;;9.77;;
83895;SDS011;74045;42.812;74.638;2023-12-29T11:11:21;19.95;;;9.35;;
83895;SDS011;74045;42.812;74.638;2023-12-29T11:13:47;18.95;;;8.98;;
83895;SDS011;74045;42.812;74.638;2023-12-29T11:16:14;16.75;;;8.93;;
83895;SDS011;74045;42.812;74.638;2023-12-29T11:18:43;22.38;;;9.75;;
83895;SDS011;74045;42.812;74.638;2023-12-29T11:21:10;15.75;;;8.98;;
83895;SDS011;74045;42.812;74.638;2023-12-29T11:23:36;20.05;;;9.75;;
83895;SDS011;74045;42.812;74.638;2023-12-29T11:26:02;19.35;;;10.13;;
83895;SDS011;74045;42.812;74.638;2023-12-29T11:28:28;17.50;;;9.98;;
83895;SDS011;74045;42.812;74.638;2023-12-29T11:30:54;20.88;;;10.73;;
83895;SDS011;74045;42.812;74.638;2023-12-29T11:33:25;21.27;;;12.48;;
83895;SDS011;74045;42.812;74.638;2023-12-29T11:35:59;24.88;;;11.00;;
83895;SDS011;74045;42.812;74.638;2023-12-29T11:44:08;19.83;;;10.18;;
83895;SDS011;74045;42.812;74.638;2023-12-29T11:46:37;19.95;;;9.55;;
83895;SDS011;74045;42.812;74.638;2023-12-29T11:49:05;18.38;;;9.30;;
83895;SDS011;74045;42.812;74.638;2023-12-29T11:54:06;18.33;;;9.10;;
83895;SDS011;74045;42.812;74.638;2023-12-29T11:56:36;15.10;;;6.68;;
83895;SDS011;74045;42.812;74.638;2023-12-29T12:01:52;14.27;;;7.30;;
83895;SDS011;74045;42.812;74.638;2023-12-29T12:04:41;18.00;;;8.10;;
83895;SDS011;74045;42.812;74.638;2023-12-29T12:12:46;35.20;;;15.20;;
83895;SDS011;74045;42.812;74.638;2023-12-29T12:18:00;36.05;;;13.93;;
83895;SDS011;74045;42.812;74.638;2023-12-29T12:20:34;37.75;;;14.38;;
83895;SDS011;74045;42.812;74.638;2023-12-29T12:23:01;36.45;;;15.20;;
83895;SDS011;74045;42.812;74.638;2023-12-29T12:25:29;27.40;;;12.00;;
83895;SDS011;74045;42.812;74.638;2023-12-29T12:28:05;39.88;;;15.77;;
83895;SDS011;74045;42.812;74.638;2023-12-29T12:30:33;46.15;;;17.92;;
83895;SDS011;74045;42.812;74.638;2023-12-29T12:33:02;36.35;;;15.00;;
83895;SDS011;74045;42.812;74.638;2023-12-29T12:35:29;30.35;;;12.98;;
83895;SDS011;74045;42.812;74.638;2023-12-29T12:38:12;20.13;;;8.68;;
83895;SDS011;74045;42.812;74.638;2023-12-29T12:40:39;24.48;;;9.48;;
83895;SDS011;74045;42.812;74.638;2023-12-29T12:43:05;18.13;;;9.18;;
83895;SDS011;74045;42.812;74.638;2023-12-29T12:45:35;17.65;;;8.98;;
83895;SDS011;74045;42.812;74.638;2023-12-29T12:51:04;22.40;;;10.48;;
83895;SDS011;74045;42.812;74.638;2023-12-29T12:53:31;23.67;;;10.68;;
83895;SDS011;74045;42.812;74.638;2023-12-29T12:55:57;24.25;;;11.45;;
83895;SDS011;74045;42.812;74.638;2023-12-29T12:58:23;32.75;;;13.52;;
83895;SDS011;74045;42.812;74.638;2023-12-29T13:00:51;36.08;;;13.07;;
83895;SDS011;74045;42.812;74.638;2023-12-29T13:03:17;46.97;;;15.43;;
83895;SDS011;74045;42.812;74.638;2023-12-29T13:05:43;35.33;;;15.43;;
83895;SDS011;74045;42.812;74.638;2023-12-29T13:08:09;35.38;;;14.35;;
83895;SDS011;74045;42.812;74.638;2023-12-29T13:10:41;32.35;;;14.00;;
83895;SDS011;74045;42.812;74.638;2023-12-29T13:13:10;30.23;;;13.02;;
83895;SDS011;74045;42.812;74.638;2023-12-29T13:15:48;30.30;;;13.68;;
83895;SDS011;74045;42.812;74.638;2023-12-29T13:18:15;25.80;;;11.82;;
83895;SDS011;74045;42.812;74.638;2023-12-29T13:20:44;30.35;;;12.63;;
83895;SDS011;74045;42.812;74.638;2023-12-29T13:23:11;42.45;;;17.00;;
83895;SDS011;74045;42.812;74.638;2023-12-29T13:25:37;71.60;;;22.02;;
83895;SDS011;74045;42.812;74.638;2023-12-29T13:28:06;69.07;;;22.30;;
83895;SDS011;74045;42.812;74.638;2023-12-29T13:30:32;29.33;;;11.48;;
83895;SDS011;74045;42.812;74.638;2023-12-29T13:32:58;29.65;;;13.00;;
83895;SDS011;74045;42.812;74.638;2023-12-29T13:35:31;35.97;;;13.38;;
83895;SDS011;74045;42.812;74.638;2023-12-29T13:40:28;28.38;;;12.82;;
83895;SDS011;74045;42.812;74.638;2023-12-29T13:43:04;29.25;;;14.10;;
83895;SDS011;74045;42.812;74.638;2023-12-29T13:45:33;68.10;;;24.45;;
83895;SDS011;74045;42.812;74.638;2023-12-29T13:48:00;72.22;;;25.00;;
83895;SDS011;74045;42.812;74.638;2023-12-29T13:50:27;59.15;;;22.08;;
83895;SDS011;74045;42.812;74.638;2023-12-29T13:52:53;35.80;;;14.65;;
83895;SDS011;74045;42.812;74.638;2023-12-29T13:55:23;88.68;;;29.08;;
83895;SDS011;74045;42.812;74.638;2023-12-29T13:57:49;63.83;;;23.42;;
83895;SDS011;74045;42.812;74.638;2023-12-29T14:10:46;33.03;;;15.10;;
83895;SDS011;74045;42.812;74.638;2023-12-29T14:13:12;38.63;;;15.55;;
83895;SDS011;74045;42.812;74.638;2023-12-29T14:15:40;37.67;;;14.95;;
83895;SDS011;74045;42.812;74.638;2023-12-29T14:18:18;37.00;;;15.57;;
83895;SDS011;74045;42.812;74.638;2023-12-29T14:21:29;55.67;;;20.10;;
83895;SDS011;74045;42.812;74.638;2023-12-29T14:23:59;50.47;;;19.73;;
83895;SDS011;74045;42.812;74.638;2023-12-29T14:26:42;45.55;;;18.27;;
83895;SDS011;74045;42.812;74.638;2023-12-29T14:29:18;55.08;;;19.33;;
83895;SDS011;74045;42.812;74.638;2023-12-29T14:31:47;43.90;;;16.95;;
83895;SDS011;74045;42.812;74.638;2023-12-29T14:34:15;47.30;;;20.05;;
83895;SDS011;74045;42.812;74.638;2023-12-29T14:36:41;35.47;;;15.10;;
83895;SDS011;74045;42.812;74.638;2023-12-29T14:39:08;32.60;;;14.02;;
83895;SDS011;74045;42.812;74.638;2023-12-29T14:41:38;24.20;;;11.20;;
83895;SDS011;74045;42.812;74.638;2023-12-29T14:44:04;29.40;;;12.32;;
83895;SDS011;74045;42.812;74.638;2023-12-29T14:46:30;36.08;;;15.02;;
83895;SDS011;74045;42.812;74.638;2023-12-29T14:48:56;27.70;;;8.63;;
83895;SDS011;74045;42.812;74.638;2023-12-29T14:51:23;31.50;;;14.23;;
83895;SDS011;74045;42.812;74.638;2023-12-29T14:53:49;37.72;;;14.43;;
83895;SDS011;74045;42.812;74.638;2023-12-29T14:56:15;37.90;;;16.42;;
83895;SDS011;74045;42.812;74.638;2023-12-29T14:58:42;36.17;;;15.05;;
83895;SDS011;74045;42.812;74.638;2023-12-29T15:01:08;37.50;;;15.98;;
83895;SDS011;74045;42.812;74.638;2023-12-29T15:03:34;39.60;;;15.48;;